createdAt,value
2022-10-17T00:00:57.968Z,1.00
2022-10-17T00:03:25.013Z,1.00
2022-10-17T00:05:52.168Z,1.00
2022-10-17T00:08:20.186Z,1.00
2022-10-17T00:11:01.226Z,1.00
2022-10-17T00:13:28.800Z,1.00
2022-10-17T00:15:55.869Z,1.00
2022-10-17T00:18:23.171Z,1.00
2022-10-17T00:20:50.916Z,1.00
2022-10-17T00:23:18.906Z,1.00
2022-10-17T00:25:45.959Z,1.00
2022-10-17T00:28:15.052Z,1.00
2022-10-17T00:30:42.133Z,1.00
2022-10-17T00:33:09.115Z,1.40
2022-10-17T00:35:36.132Z,1.30
2022-10-17T00:38:03.167Z,2.20
2022-10-17T00:40:30.124Z,12.90
2022-10-17T00:42:57.184Z,13.20
2022-10-17T00:45:31.360Z,13.50
2022-10-17T00:48:09.494Z,13.20
2022-10-17T00:50:40.054Z,13.90
2022-10-17T00:53:09.522Z,13.20
2022-10-17T00:55:47.545Z,17.90
2022-10-17T00:58:14.784Z,17.40
2022-10-17T01:00:48.826Z,19.10
2022-10-17T01:03:16.916Z,19.60
2022-10-17T01:05:44.263Z,21.40
2022-10-17T01:08:12.611Z,32.80
2022-10-17T01:11:04.570Z,34.00
2022-10-17T01:14:03.333Z,33.60
2022-10-17T01:16:54.664Z,32.40
2022-10-17T01:19:41.571Z,34.30
2022-10-17T01:22:12.193Z,34.30
2022-10-17T01:24:57.112Z,36.90
2022-10-17T01:27:49.801Z,37.90
2022-10-17T01:30:54.993Z,38.50
2022-10-17T01:34:12.927Z,39.30
2022-10-17T01:36:48.715Z,40.80
2022-10-17T01:39:48.327Z,44.60
2022-10-17T01:42:45.831Z,45.90
2022-10-17T01:45:48.531Z,44.60
2022-10-17T01:48:22.491Z,46.50
2022-10-17T01:50:59.674Z,46.10
2022-10-17T01:53:35.855Z,47.30
2022-10-17T01:56:06.989Z,48.00
2022-10-17T01:58:43.511Z,49.60
2022-10-17T02:01:12.979Z,56.30
2022-10-17T02:03:43.709Z,59.10
2022-10-17T02:06:10.874Z,63.00
2022-10-17T02:08:50.412Z,62.70
2022-10-17T02:11:26.832Z,64.90
2022-10-17T02:14:26.454Z,66.50
2022-10-17T02:17:35.501Z,66.50
2022-10-17T02:20:24.979Z,70.50
2022-10-17T02:22:59.558Z,74.50
2022-10-17T02:25:55.579Z,79.60
2022-10-17T02:29:00.598Z,85.10
2022-10-17T02:31:40.101Z,83.90
2022-10-17T02:34:22.775Z,87.50
2022-10-17T02:36:59.877Z,85.30
2022-10-17T02:39:29.313Z,82.80
2022-10-17T02:42:00.557Z,85.30
2022-10-17T02:44:29.670Z,82.40
2022-10-17T02:47:27.436Z,99.90
2022-10-17T02:49:58.539Z,99.90
2022-10-17T02:52:45.520Z,99.90
2022-10-17T02:55:39.958Z,99.90
2022-10-17T02:58:21.223Z,99.90
2022-10-17T03:00:49.056Z,99.90
2022-10-17T03:03:29.340Z,99.90
2022-10-17T03:05:56.732Z,99.90
2022-10-17T03:08:24.444Z,99.90
2022-10-17T03:10:51.933Z,99.90
2022-10-17T03:13:19.176Z,99.90
2022-10-17T03:15:46.955Z,99.90
2022-10-17T03:18:14.246Z,99.90
2022-10-17T03:20:41.353Z,99.90
2022-10-17T03:23:08.419Z,99.90
2022-10-17T03:25:35.463Z,99.90
2022-10-17T03:28:02.427Z,99.90
2022-10-17T03:30:29.790Z,99.90
2022-10-17T03:32:59.199Z,99.90
2022-10-17T03:35:27.717Z,99.90
2022-10-17T03:37:56.256Z,99.90
2022-10-17T03:40:23.406Z,99.90
2022-10-17T03:42:51.016Z,99.90
2022-10-17T03:45:18.020Z,99.90
2022-10-17T03:47:45.023Z,99.90
2022-10-17T03:50:12.446Z,99.90
2022-10-17T03:52:39.555Z,99.90
2022-10-17T03:55:06.967Z,99.90
2022-10-17T03:57:36.624Z,99.90
2022-10-17T04:00:05.420Z,99.90
2022-10-17T04:02:32.521Z,99.90
2022-10-17T04:04:59.689Z,99.90
2022-10-17T04:09:53.734Z,99.90
2022-10-17T04:12:20.783Z,99.90
2022-10-17T04:14:47.795Z,99.90
2022-10-17T04:17:14.805Z,99.90
2022-10-17T04:19:41.911Z,99.90
2022-10-17T04:22:08.864Z,99.90
2022-10-17T04:24:35.838Z,99.90
2022-10-17T04:27:03.122Z,99.90
2022-10-17T04:29:30.160Z,99.90
2022-10-17T04:32:00.308Z,99.90
2022-10-17T04:34:27.334Z,99.90
2022-10-17T04:36:54.605Z,99.90
2022-10-17T04:39:21.753Z,99.90
2022-10-17T04:41:48.775Z,99.90
2022-10-17T04:44:15.786Z,99.90
2022-10-17T04:46:42.928Z,99.90
2022-10-17T04:49:10.004Z,99.90
2022-10-17T04:51:39.112Z,99.90
2022-10-17T04:54:06.553Z,99.90
2022-10-17T04:56:33.767Z,99.90
2022-10-17T04:59:00.795Z,99.90
2022-10-17T05:01:28.446Z,99.90
2022-10-17T05:03:56.126Z,99.90
2022-10-17T05:06:28.192Z,99.90
2022-10-17T05:08:55.580Z,99.90
2022-10-17T05:11:25.760Z,99.90
2022-10-17T05:13:56.635Z,99.90
2022-10-17T05:16:24.910Z,99.90
2022-10-17T05:18:55.122Z,99.90
2022-10-17T05:21:24.610Z,99.90
2022-10-17T05:23:52.196Z,99.90
2022-10-17T05:26:20.030Z,99.90
2022-10-17T05:28:47.445Z,99.90
2022-10-17T05:31:14.971Z,99.90
2022-10-17T05:33:42.322Z,99.90
2022-10-17T05:36:10.063Z,99.90
2022-10-17T05:38:37.310Z,99.90
2022-10-17T05:41:06.268Z,99.90
2022-10-17T05:43:34.685Z,99.90
2022-10-17T05:46:07.121Z,99.90
2022-10-17T05:48:34.828Z,99.90
2022-10-17T05:51:08.862Z,99.90
2022-10-17T05:53:39.972Z,99.90
2022-10-17T05:56:10.735Z,99.90
2022-10-17T05:58:50.340Z,99.90
2022-10-17T06:01:18.985Z,99.90
2022-10-17T06:03:46.006Z,99.90
2022-10-17T06:06:14.925Z,99.90
2022-10-17T06:08:42.780Z,99.90
2022-10-17T06:11:10.873Z,99.90
2022-10-17T06:13:39.296Z,99.90
2022-10-17T06:16:07.048Z,99.90
2022-10-17T06:18:34.435Z,99.90
2022-10-17T06:21:08.673Z,99.90
2022-10-17T06:23:35.996Z,99.90
2022-10-17T06:26:05.399Z,99.90
2022-10-17T06:28:33.793Z,99.90
2022-10-17T06:31:07.626Z,99.90
2022-10-17T06:33:35.443Z,99.90
2022-10-17T06:36:03.658Z,99.90
2022-10-17T06:38:30.761Z,99.90
2022-10-17T06:41:14.379Z,99.90
2022-10-17T06:43:45.721Z,99.90
2022-10-17T06:46:15.192Z,99.90
2022-10-17T06:48:42.591Z,99.90
2022-10-17T06:51:11.423Z,99.90
2022-10-17T06:53:40.292Z,99.90
2022-10-17T06:56:09.578Z,99.90
2022-10-17T06:58:39.699Z,99.90
2022-10-17T07:01:13.397Z,99.90
2022-10-17T07:03:41.371Z,1.00
2022-10-17T07:06:10.850Z,99.90
2022-10-17T07:08:38.143Z,99.90
2022-10-17T07:11:18.612Z,99.90
2022-10-17T07:13:49.206Z,99.90
2022-10-17T07:16:16.930Z,1.00
2022-10-17T07:18:44.429Z,99.90
2022-10-17T07:21:11.550Z,1.00
2022-10-17T07:23:39.900Z,1.00
2022-10-17T07:26:11.093Z,1.00
2022-10-17T07:28:42.375Z,1.00
2022-10-17T07:31:13.266Z,1.00
2022-10-17T07:33:41.071Z,99.90
2022-10-17T07:36:08.684Z,99.00
2022-10-17T07:38:37.010Z,99.90
2022-10-17T07:41:06.584Z,1.00
2022-10-17T07:43:34.775Z,1.00
2022-10-17T07:46:03.352Z,1.00
2022-10-17T07:48:30.798Z,1.00
2022-10-17T07:50:58.055Z,1.00
2022-10-17T07:53:25.130Z,1.00
2022-10-17T07:55:52.192Z,1.00
2022-10-17T07:58:19.238Z,1.00
2022-10-17T08:00:48.610Z,1.00
2022-10-17T08:03:15.812Z,1.00
2022-10-17T08:05:42.856Z,99.90
2022-10-17T08:08:09.838Z,1.00
2022-10-17T08:10:37.428Z,99.90
2022-10-17T08:13:04.503Z,99.90
2022-10-17T08:15:32.146Z,99.90
2022-10-17T08:17:59.630Z,1.00
2022-10-17T08:20:26.875Z,1.00
2022-10-17T08:22:55.423Z,93.30
2022-10-17T08:25:23.496Z,1.00
2022-10-17T08:27:51.880Z,1.00
2022-10-17T08:30:20.329Z,99.90
2022-10-17T08:32:47.340Z,99.90
2022-10-17T08:35:14.880Z,1.00
2022-10-17T08:37:42.025Z,1.00
2022-10-17T08:40:21.033Z,1.00
2022-10-17T08:43:12.511Z,1.00
2022-10-17T08:46:03.196Z,1.00
2022-10-17T08:48:42.623Z,1.00
2022-10-17T08:51:28.319Z,1.00
2022-10-17T08:54:10.093Z,1.00
2022-10-17T08:56:49.168Z,1.00
2022-10-17T08:59:29.595Z,1.00
2022-10-17T09:02:54.508Z,1.00
2022-10-17T09:05:35.111Z,1.00
2022-10-17T09:08:12.947Z,1.00
2022-10-17T09:11:20.109Z,1.00
2022-10-17T09:14:02.043Z,1.00
2022-10-17T09:16:37.684Z,70.00
2022-10-17T09:19:11.738Z,99.90
2022-10-17T09:21:54.160Z,1.00
2022-10-17T09:24:31.540Z,95.00
2022-10-17T09:26:59.366Z,1.00
2022-10-17T09:29:32.370Z,1.00
2022-10-17T09:32:17.487Z,1.00
2022-10-17T09:34:44.630Z,1.00
2022-10-17T09:37:15.440Z,1.00
2022-10-17T09:39:45.836Z,1.00
2022-10-17T09:42:21.461Z,1.00
2022-10-17T09:45:25.942Z,99.90
2022-10-17T09:48:04.615Z,99.90
2022-10-17T09:50:34.971Z,1.00
2022-10-17T09:53:31.122Z,1.00
2022-10-17T09:56:02.147Z,1.00
2022-10-17T09:59:01.906Z,1.00
2022-10-17T10:01:31.818Z,99.90
2022-10-17T10:04:15.747Z,99.90
2022-10-17T10:07:06.499Z,99.90
2022-10-17T10:09:39.360Z,1.00
2022-10-17T10:12:22.657Z,1.00
2022-10-17T10:14:53.338Z,1.00
2022-10-17T10:17:33.606Z,1.00
2022-10-17T10:20:01.681Z,1.00
2022-10-17T10:22:29.133Z,99.90
2022-10-17T10:25:15.172Z,99.90
2022-10-17T10:27:45.235Z,99.90
2022-10-17T10:30:29.961Z,99.90
2022-10-17T10:32:59.980Z,99.90
2022-10-17T10:35:33.389Z,99.90
2022-10-17T10:38:04.040Z,99.90
2022-10-17T10:40:47.135Z,99.90
2022-10-17T10:43:43.212Z,99.90
2022-10-17T10:46:27.310Z,99.90
2022-10-17T10:49:00.870Z,41.50
2022-10-17T10:51:40.210Z,1.00
2022-10-17T10:54:51.044Z,1.00
2022-10-17T10:57:23.049Z,1.00
2022-10-17T11:00:13.003Z,1.00
2022-10-17T11:03:17.751Z,1.00
2022-10-17T11:05:53.470Z,1.00
2022-10-17T11:08:50.262Z,1.00
2022-10-17T11:11:39.885Z,1.00
2022-10-17T11:14:38.205Z,1.00
2022-10-17T11:17:29.714Z,99.90
2022-10-17T11:20:19.959Z,1.00
2022-10-17T11:22:57.850Z,1.00
2022-10-17T11:25:40.743Z,99.90
2022-10-17T11:28:18.471Z,99.90
2022-10-17T11:31:10.121Z,1.00
2022-10-17T11:33:56.037Z,99.90
2022-10-17T11:36:30.109Z,49.60
2022-10-17T11:39:11.478Z,18.40
2022-10-17T11:41:55.491Z,99.90
2022-10-17T11:44:37.215Z,1.00
2022-10-17T11:47:26.436Z,99.90
2022-10-17T11:53:32.057Z,99.90
2022-10-17T11:56:00.603Z,1.00
2022-10-17T11:58:53.215Z,1.00
2022-10-17T12:01:46.969Z,99.90
2022-10-17T12:04:59.430Z,1.00
2022-10-17T12:08:26.990Z,99.90
2022-10-17T12:11:14.202Z,1.00
2022-10-17T12:13:41.974Z,10.10
2022-10-17T12:16:20.992Z,1.00
2022-10-17T12:19:11.877Z,1.00
2022-10-17T12:22:00.768Z,23.00
2022-10-17T12:24:52.959Z,1.00
2022-10-17T12:27:30.656Z,5.60
2022-10-17T12:30:12.505Z,15.10
2022-10-17T12:33:06.238Z,13.70
2022-10-17T12:35:36.814Z,9.50
2022-10-17T12:38:22.954Z,1.00
2022-10-17T12:40:53.120Z,1.00
2022-10-17T12:43:29.197Z,1.00
2022-10-17T12:46:02.166Z,99.90
2022-10-17T12:48:37.903Z,99.90
2022-10-17T12:54:15.505Z,99.90
2022-10-17T12:56:47.943Z,99.90
2022-10-17T12:59:26.181Z,1.00
2022-10-17T13:01:59.065Z,1.00
2022-10-17T13:04:28.913Z,99.90
2022-10-17T13:07:00.658Z,1.00
2022-10-17T13:09:37.574Z,99.90
2022-10-17T13:12:12.369Z,1.00
2022-10-17T13:14:42.876Z,1.00
2022-10-17T13:17:30.751Z,1.00
2022-10-17T13:19:58.611Z,1.00
2022-10-17T13:22:32.909Z,99.90
2022-10-17T13:25:19.187Z,1.00
2022-10-17T13:27:46.796Z,1.00
2022-10-17T13:30:32.627Z,1.00
2022-10-17T13:33:01.519Z,99.90
2022-10-17T13:35:58.732Z,99.90
2022-10-17T13:38:29.886Z,78.90
2022-10-17T13:41:05.914Z,99.90
2022-10-17T13:43:38.875Z,99.90
2022-10-17T13:46:32.640Z,99.90
2022-10-17T13:48:54.104Z,99.90
2022-10-17T13:51:21.832Z,99.90
2022-10-17T13:53:49.456Z,99.90
2022-10-17T13:56:29.319Z,99.90
2022-10-17T13:59:18.330Z,99.90
2022-10-17T14:01:45.808Z,99.90
2022-10-17T14:04:19.862Z,99.90
2022-10-17T14:06:51.288Z,99.90
2022-10-17T14:09:29.225Z,17.70
2022-10-17T14:12:11.131Z,99.90
2022-10-17T14:14:58.388Z,99.90
2022-10-17T14:17:30.063Z,1.00
2022-10-17T14:23:17.566Z,19.20
2022-10-17T14:25:41.131Z,99.90
2022-10-17T14:28:11.741Z,77.40
2022-10-17T14:30:56.204Z,84.70
2022-10-17T14:33:32.452Z,99.90
2022-10-17T14:36:02.556Z,99.90
2022-10-17T14:38:30.330Z,1.00
2022-10-17T14:41:30.562Z,1.00
2022-10-17T14:44:02.435Z,1.00
2022-10-17T14:46:29.605Z,1.00
2022-10-17T14:49:21.735Z,1.00
2022-10-17T14:52:29.209Z,1.00
2022-10-17T14:54:58.009Z,1.00
2022-10-17T14:57:28.272Z,1.00
2022-10-17T14:59:57.235Z,1.00
2022-10-17T15:02:30.742Z,1.00
2022-10-17T15:04:58.156Z,1.00
2022-10-17T15:07:25.198Z,1.00
2022-10-17T15:09:53.966Z,1.00
2022-10-17T15:12:25.346Z,1.00
2022-10-17T15:14:53.343Z,1.00
2022-10-17T15:17:31.310Z,1.00
2022-10-17T15:19:59.057Z,1.00
2022-10-17T15:22:26.501Z,1.00
2022-10-17T15:24:53.607Z,1.00
2022-10-17T15:27:24.017Z,1.00
2022-10-17T15:29:52.836Z,1.00
2022-10-17T15:32:19.867Z,22.20
2022-10-17T15:34:46.869Z,99.90
2022-10-17T15:37:20.938Z,1.80
2022-10-17T15:39:54.704Z,86.40
2022-10-17T15:42:27.608Z,81.00
2022-10-17T15:44:55.345Z,99.90
2022-10-17T15:47:31.304Z,99.90
2022-10-17T15:50:00.464Z,99.90
2022-10-17T15:52:27.789Z,1.00
2022-10-17T15:54:57.341Z,1.00
2022-10-17T15:57:30.743Z,99.90
2022-10-17T16:00:00.274Z,99.90
2022-10-17T16:02:28.019Z,99.90
2022-10-17T16:04:55.161Z,99.90
2022-10-17T16:07:22.410Z,99.90
2022-10-17T16:09:49.488Z,1.00
2022-10-17T16:12:27.952Z,1.00
2022-10-17T16:14:55.570Z,1.00
2022-10-17T16:17:22.581Z,1.00
2022-10-17T16:19:50.074Z,99.90
2022-10-17T16:22:33.276Z,99.90
2022-10-17T16:25:07.853Z,99.90
2022-10-17T16:27:36.738Z,1.00
2022-10-17T16:30:08.671Z,53.80
2022-10-17T16:32:35.735Z,99.90
2022-10-17T16:35:02.904Z,1.00
2022-10-17T16:37:29.999Z,99.90
2022-10-17T16:39:56.966Z,1.00
2022-10-17T16:42:24.262Z,99.90
2022-10-17T16:44:51.418Z,1.00
2022-10-17T16:47:19.173Z,1.00
2022-10-17T16:49:46.401Z,1.00
2022-10-17T16:52:13.773Z,1.00
2022-10-17T16:54:41.008Z,1.00
2022-10-17T16:57:08.130Z,1.00
2022-10-17T16:59:35.181Z,1.00
2022-10-17T17:02:02.202Z,1.00
2022-10-17T17:04:29.325Z,1.00
2022-10-17T17:06:56.435Z,1.00
2022-10-17T17:09:23.653Z,1.00
2022-10-17T17:11:50.621Z,1.00
2022-10-17T17:14:17.569Z,1.00
2022-10-17T17:16:44.528Z,1.00
2022-10-17T17:19:15.165Z,1.00
2022-10-17T17:21:47.662Z,1.00
2022-10-17T17:24:15.112Z,1.00
2022-10-17T17:26:42.154Z,1.00
2022-10-17T17:29:10.935Z,1.00
2022-10-17T17:31:39.415Z,1.00
2022-10-17T17:34:06.453Z,1.00
2022-10-17T17:36:37.063Z,1.00
2022-10-17T17:39:07.872Z,1.00
2022-10-17T17:41:35.498Z,1.00
2022-10-17T17:44:04.087Z,1.00
2022-10-17T17:46:31.239Z,1.00
2022-10-17T17:48:58.533Z,1.00
2022-10-17T17:51:29.469Z,1.00
2022-10-17T17:53:57.083Z,1.00
2022-10-17T17:56:27.630Z,1.00
2022-10-17T17:59:00.803Z,1.00
2022-10-17T18:01:38.086Z,1.00
2022-10-17T18:04:08.721Z,1.00
2022-10-17T18:06:37.637Z,1.00
2022-10-17T18:09:06.552Z,1.00
2022-10-17T18:11:33.885Z,1.00
2022-10-17T18:14:05.399Z,1.00
2022-10-17T18:16:35.070Z,1.00
2022-10-17T18:19:08.891Z,1.00
2022-10-17T18:21:37.050Z,1.00
2022-10-17T18:24:04.912Z,1.00
2022-10-17T18:26:32.308Z,1.00
2022-10-17T18:28:59.434Z,1.00
2022-10-17T18:31:35.686Z,1.00
2022-10-17T18:34:05.026Z,1.00
2022-10-17T18:36:34.468Z,1.00
2022-10-17T18:39:02.697Z,1.00
2022-10-17T18:41:30.071Z,1.00
2022-10-17T18:43:57.752Z,1.00
2022-10-17T18:46:36.599Z,1.00
2022-10-17T18:49:03.794Z,1.70
2022-10-17T18:51:30.868Z,1.00
2022-10-17T18:53:58.821Z,1.00
2022-10-17T18:56:26.682Z,1.00
2022-10-17T18:58:57.038Z,1.00
2022-10-17T19:01:27.254Z,1.00
2022-10-17T19:03:57.484Z,1.00
2022-10-17T19:06:33.681Z,1.00
2022-10-17T19:09:05.023Z,1.00
2022-10-17T19:11:34.024Z,1.00
2022-10-17T19:14:03.889Z,1.00
2022-10-17T19:16:45.596Z,1.00
2022-10-17T19:19:25.766Z,1.00
2022-10-17T19:21:53.311Z,1.00
2022-10-17T19:24:27.521Z,1.00
2022-10-17T19:26:59.494Z,1.00
2022-10-17T19:29:28.727Z,1.00
2022-10-17T19:34:22.761Z,1.00
2022-10-17T19:36:50.205Z,1.00
2022-10-17T19:39:23.289Z,1.00
2022-10-17T19:41:50.465Z,1.00
2022-10-17T19:44:17.798Z,1.00
2022-10-17T19:46:46.941Z,1.00
2022-10-17T19:49:14.558Z,1.00
2022-10-17T19:51:42.219Z,1.00
2022-10-17T19:54:10.789Z,1.00
2022-10-17T19:56:38.278Z,1.00
2022-10-17T19:59:06.793Z,1.00
2022-10-17T20:01:38.905Z,1.00
2022-10-17T20:04:07.723Z,1.00
2022-10-17T20:06:35.353Z,1.00
2022-10-17T20:09:03.304Z,1.00
2022-10-17T20:11:30.597Z,1.00
2022-10-17T20:13:59.452Z,1.00
2022-10-17T20:16:33.769Z,1.00
2022-10-17T20:19:09.472Z,1.00
2022-10-17T20:21:39.422Z,1.00
2022-10-17T20:24:11.389Z,1.00
2022-10-17T20:26:39.364Z,1.00
2022-10-17T20:29:18.394Z,1.00
2022-10-17T20:31:46.780Z,1.00
2022-10-17T20:34:16.819Z,1.00
2022-10-17T20:36:44.592Z,1.00
2022-10-17T20:39:14.020Z,1.00
2022-10-17T20:41:41.591Z,1.00
2022-10-17T20:44:09.056Z,1.00
2022-10-17T20:46:41.582Z,1.00
2022-10-17T20:49:17.971Z,1.00
2022-10-17T20:51:45.944Z,1.00
2022-10-17T20:54:13.131Z,1.00
2022-10-17T20:56:40.319Z,1.00
2022-10-17T20:59:17.919Z,99.90
2022-10-17T21:01:45.743Z,99.90
2022-10-17T21:04:44.121Z,1.00
2022-10-17T21:07:00.354Z,1.00
2022-10-17T21:09:27.627Z,1.00
2022-10-17T21:11:55.943Z,1.00
2022-10-17T21:14:24.984Z,1.00
2022-10-17T21:16:52.479Z,1.00
2022-10-17T21:19:21.722Z,1.00
2022-10-17T21:21:49.079Z,1.00
2022-10-17T21:24:19.270Z,1.00
2022-10-17T21:26:50.336Z,1.00
2022-10-17T21:29:17.288Z,1.00
2022-10-17T21:31:45.095Z,1.00
2022-10-17T21:34:27.898Z,1.00
2022-10-17T21:36:55.145Z,1.00
2022-10-17T21:39:24.821Z,1.00
2022-10-17T21:41:52.920Z,1.00
2022-10-17T21:44:26.703Z,1.00
2022-10-17T21:46:55.174Z,1.00
2022-10-17T21:49:24.881Z,1.00
2022-10-17T21:51:52.681Z,1.00
2022-10-17T21:54:22.954Z,1.00
2022-10-17T21:56:51.081Z,1.00
2022-10-17T21:59:18.468Z,1.00
2022-10-17T22:01:46.385Z,1.00
2022-10-17T22:04:17.752Z,1.00
2022-10-17T22:06:47.503Z,1.00
2022-10-17T22:09:23.416Z,1.00
2022-10-17T22:11:54.721Z,1.00
2022-10-17T22:14:26.052Z,1.00
2022-10-17T22:16:53.860Z,1.00
2022-10-17T22:19:26.707Z,1.00
2022-10-17T22:21:54.717Z,1.00
2022-10-17T22:24:22.394Z,1.00
2022-10-17T22:26:49.687Z,1.00
2022-10-17T22:29:17.632Z,1.00
2022-10-17T22:31:44.908Z,1.00
2022-10-17T22:34:15.683Z,1.00
2022-10-17T22:36:43.315Z,1.00
2022-10-17T22:39:11.292Z,1.00
2022-10-17T22:41:38.462Z,1.00
2022-10-17T22:44:05.946Z,1.00
2022-10-17T22:46:33.234Z,1.00
2022-10-17T22:49:00.247Z,1.00
2022-10-17T22:51:27.476Z,1.00
2022-10-17T22:53:54.591Z,1.00
2022-10-17T22:56:23.582Z,1.00
2022-10-17T22:58:51.397Z,1.00
2022-10-17T23:01:22.666Z,1.00
2022-10-17T23:03:51.074Z,1.00
2022-10-17T23:06:19.012Z,1.00
2022-10-17T23:08:46.181Z,1.00
2022-10-17T23:11:13.345Z,1.00
2022-10-17T23:13:41.032Z,1.00
2022-10-17T23:16:08.864Z,1.00
2022-10-17T23:18:37.736Z,1.00
2022-10-17T23:21:05.374Z,1.00
2022-10-17T23:23:32.365Z,1.00
2022-10-17T23:26:09.424Z,1.00
2022-10-17T23:28:36.781Z,1.00
2022-10-17T23:31:17.090Z,1.00
2022-10-17T23:33:45.961Z,1.00
2022-10-17T23:36:16.221Z,1.00
2022-10-17T23:38:45.530Z,1.00
2022-10-17T23:41:13.456Z,1.00
2022-10-17T23:43:41.008Z,1.00
2022-10-17T23:46:08.612Z,1.00
2022-10-17T23:48:35.907Z,1.00
2022-10-17T23:51:03.576Z,1.00
2022-10-17T23:53:31.061Z,1.00
2022-10-17T23:55:57.987Z,1.00
2022-10-17T23:58:24.970Z,1.00
